createdAt,value
2022-11-26T00:01:32.590Z,8.21
2022-11-26T00:06:38.663Z,8.58
2022-11-26T00:11:44.883Z,8.17
2022-11-26T00:16:51.105Z,7.79
2022-11-26T00:21:58.219Z,8.19
2022-11-26T00:27:04.314Z,8.69
2022-11-26T00:32:10.688Z,8.69
2022-11-26T00:37:16.862Z,9.30
2022-11-26T00:42:22.998Z,9.37
2022-11-26T00:47:29.124Z,8.80
2022-11-26T00:52:36.109Z,9.21
2022-11-26T00:57:42.253Z,9.55
2022-11-26T01:02:48.575Z,8.97
2022-11-26T01:07:54.766Z,8.62
2022-11-26T01:13:00.811Z,8.69
2022-11-26T01:18:07.300Z,8.07
2022-11-26T01:23:13.603Z,8.91
2022-11-26T01:28:19.724Z,8.47
2022-11-26T01:33:26.318Z,8.68
2022-11-26T01:38:32.404Z,8.46
2022-11-26T01:43:38.907Z,8.27
2022-11-26T01:48:44.996Z,8.26
2022-11-26T01:53:51.586Z,8.79
2022-11-26T01:58:57.650Z,8.56
2022-11-26T02:04:03.851Z,8.47
2022-11-26T02:09:09.987Z,8.85
2022-11-26T02:14:16.197Z,8.22
2022-11-26T02:19:22.270Z,8.66
2022-11-26T02:24:28.781Z,8.49
2022-11-26T02:29:34.943Z,8.75
2022-11-26T02:34:42.285Z,8.87
2022-11-26T02:39:48.221Z,9.00
2022-11-26T02:44:54.400Z,8.62
2022-11-26T02:50:00.450Z,8.83
2022-11-26T02:55:06.603Z,8.80
2022-11-26T03:00:12.654Z,9.38
2022-11-26T03:05:18.850Z,8.65
2022-11-26T03:10:24.893Z,8.82
2022-11-26T03:15:31.508Z,8.85
2022-11-26T03:20:38.023Z,9.01
2022-11-26T03:25:44.215Z,8.24
2022-11-26T03:30:50.288Z,8.51
2022-11-26T03:35:56.505Z,8.57
2022-11-26T03:41:02.592Z,9.42
2022-11-26T03:46:08.940Z,8.90
2022-11-26T03:51:15.422Z,8.29
2022-11-26T03:56:22.034Z,9.25
2022-11-26T04:01:29.030Z,8.68
2022-11-26T04:06:35.170Z,9.06
2022-11-26T04:11:41.698Z,9.46
2022-11-26T04:16:48.671Z,9.63
2022-11-26T04:21:54.782Z,9.75
2022-11-26T04:27:01.111Z,9.56
2022-11-26T04:32:07.238Z,9.31
2022-11-26T04:37:13.413Z,10.21
2022-11-26T04:42:19.494Z,10.05
2022-11-26T04:47:26.000Z,10.60
2022-11-26T04:52:32.080Z,10.56
2022-11-26T04:57:38.358Z,10.09
2022-11-26T05:02:44.573Z,11.01
2022-11-26T05:07:50.814Z,11.28
2022-11-26T05:12:56.788Z,10.89
2022-11-26T05:18:03.267Z,11.05
2022-11-26T05:23:09.399Z,11.63
2022-11-26T05:28:16.462Z,11.62
2022-11-26T05:33:23.367Z,11.28
2022-11-26T05:38:29.563Z,11.07
2022-11-26T05:43:35.612Z,11.08
2022-11-26T05:48:41.773Z,11.11
2022-11-26T05:53:47.850Z,11.40
2022-11-26T05:58:54.357Z,11.33
2022-11-26T06:04:00.848Z,11.66
2022-11-26T06:09:07.038Z,10.85
2022-11-26T06:14:13.191Z,10.97
2022-11-26T06:19:19.382Z,11.03
2022-11-26T06:24:25.828Z,10.95
2022-11-26T06:29:32.046Z,11.49
2022-11-26T06:34:38.339Z,11.70
2022-11-26T06:40:01.836Z,12.31
2022-11-26T06:45:07.972Z,11.59
2022-11-26T06:50:14.196Z,12.04
2022-11-26T06:55:20.711Z,12.28
2022-11-26T07:00:26.842Z,13.15
2022-11-26T07:05:33.879Z,12.88
2022-11-26T07:10:41.916Z,12.85
2022-11-26T07:15:45.775Z,13.66
2022-11-26T07:20:52.000Z,13.27
2022-11-26T07:25:58.062Z,13.72
2022-11-26T07:31:04.340Z,13.87
2022-11-26T07:36:10.410Z,13.68
2022-11-26T07:41:16.579Z,14.08
2022-11-26T07:46:23.503Z,13.85
2022-11-26T07:51:29.591Z,14.50
2022-11-26T07:56:36.461Z,14.62
2022-11-26T08:01:42.898Z,14.56
2022-11-26T08:06:48.982Z,14.23
2022-11-26T08:11:55.544Z,25.31
2022-11-26T08:17:01.611Z,15.02
2022-11-26T08:22:07.837Z,15.71
2022-11-26T08:27:13.907Z,14.77
2022-11-26T08:32:20.136Z,15.06
2022-11-26T08:37:26.234Z,15.27
2022-11-26T08:42:32.722Z,15.53
2022-11-26T08:47:39.113Z,14.83
2022-11-26T08:52:45.375Z,16.35
2022-11-26T08:57:51.792Z,16.64
2022-11-26T09:02:58.068Z,16.69
2022-11-26T09:08:04.154Z,17.89
2022-11-26T09:13:10.274Z,17.79
2022-11-26T09:18:16.365Z,17.31
2022-11-26T09:23:22.588Z,17.75
2022-11-26T09:28:29.006Z,18.00
2022-11-26T09:33:35.484Z,18.68
2022-11-26T09:38:41.539Z,18.95
2022-11-26T09:43:52.056Z,18.28
2022-11-26T09:48:53.862Z,20.86
2022-11-26T09:54:00.065Z,19.76
2022-11-26T09:59:06.204Z,20.73
2022-11-26T10:04:12.604Z,22.00
2022-11-26T10:09:18.725Z,22.83
2022-11-26T10:14:25.256Z,24.03
2022-11-26T10:19:31.372Z,25.11
2022-11-26T10:24:46.234Z,25.30
2022-11-26T10:29:42.523Z,27.41
2022-11-26T10:34:48.933Z,26.93
2022-11-26T10:40:00.906Z,26.97
2022-11-26T10:45:01.631Z,28.83
2022-11-26T10:50:25.430Z,27.71
2022-11-26T10:55:13.625Z,31.24
2022-11-26T11:00:20.124Z,32.72
2022-11-26T11:05:26.325Z,31.35
2022-11-26T11:10:32.507Z,30.07
2022-11-26T11:15:39.074Z,30.90
2022-11-26T11:20:45.236Z,29.60
2022-11-26T11:25:51.459Z,29.82
2022-11-26T11:30:57.556Z,28.78
2022-11-26T11:36:03.923Z,29.89
2022-11-26T11:41:10.127Z,30.13
2022-11-26T11:46:16.771Z,29.16
2022-11-26T11:51:22.943Z,30.91
2022-11-26T11:56:29.264Z,28.57
2022-11-26T12:01:35.444Z,28.14
2022-11-26T12:06:41.953Z,27.87
2022-11-26T12:11:48.467Z,27.19
2022-11-26T12:16:55.052Z,26.52
2022-11-26T12:22:01.551Z,27.31
2022-11-26T12:27:07.803Z,26.12
2022-11-26T12:32:14.888Z,25.33
2022-11-26T12:37:21.132Z,24.34
2022-11-26T12:42:27.286Z,24.66
2022-11-26T12:47:33.563Z,25.38
2022-11-26T12:52:39.694Z,24.93
2022-11-26T12:57:46.302Z,27.09
2022-11-26T13:02:53.390Z,25.68
2022-11-26T13:08:00.029Z,26.19
2022-11-26T13:13:06.774Z,25.25
2022-11-26T13:23:20.095Z,25.77
2022-11-26T13:28:26.183Z,25.14
2022-11-26T13:33:32.674Z,25.81
2022-11-26T13:38:38.875Z,25.68
2022-11-26T13:43:44.952Z,25.74
2022-11-26T13:48:51.109Z,24.81
2022-11-26T13:53:57.176Z,24.56
2022-11-26T13:59:03.404Z,22.73
2022-11-26T14:04:09.537Z,23.65
2022-11-26T14:09:15.817Z,23.74
2022-11-26T14:14:21.819Z,22.67
2022-11-26T14:19:28.951Z,23.30
2022-11-26T14:24:35.079Z,23.52
2022-11-26T14:29:42.095Z,24.20
2022-11-26T14:34:48.501Z,23.72
2022-11-26T14:39:54.760Z,24.22
2022-11-26T14:45:00.807Z,23.81
2022-11-26T14:50:07.043Z,24.78
2022-11-26T14:55:13.193Z,25.76
2022-11-26T15:00:19.323Z,25.41
2022-11-26T15:05:25.381Z,26.75
2022-11-26T15:10:31.707Z,26.93
2022-11-26T15:15:37.848Z,27.28
2022-11-26T15:20:43.983Z,27.54
2022-11-26T15:25:50.065Z,26.53
2022-11-26T15:30:56.683Z,27.76
2022-11-26T15:36:02.835Z,27.81
2022-11-26T15:41:08.967Z,27.56
2022-11-26T15:46:15.087Z,28.71
2022-11-26T15:51:21.227Z,27.28
2022-11-26T15:56:27.287Z,28.00
2022-11-26T16:01:33.533Z,28.74
2022-11-26T16:06:39.655Z,28.79
2022-11-26T16:12:21.740Z,32.45
2022-11-26T16:17:27.847Z,29.63
2022-11-26T16:22:34.491Z,30.31
2022-11-26T16:27:40.613Z,29.61
2022-11-26T16:32:46.804Z,29.55
2022-11-26T16:37:52.905Z,30.77
2022-11-26T16:42:59.163Z,29.46
2022-11-26T16:48:05.270Z,29.47
2022-11-26T16:53:11.448Z,30.73
2022-11-26T16:58:17.953Z,30.43
2022-11-26T17:03:24.270Z,30.94
2022-11-26T17:08:30.605Z,30.59
2022-11-26T17:13:37.115Z,30.44
2022-11-26T17:18:43.581Z,30.50
2022-11-26T17:23:49.773Z,30.78
2022-11-26T17:28:56.144Z,31.48
2022-11-26T17:34:02.331Z,30.93
2022-11-26T17:39:08.503Z,31.74
2022-11-26T17:44:15.600Z,30.31
2022-11-26T17:49:21.927Z,31.89
2022-11-26T17:54:28.057Z,32.12
2022-11-26T17:59:34.203Z,30.70
2022-11-26T18:04:40.410Z,30.71
2022-11-26T18:09:46.469Z,31.15
2022-11-26T18:14:53.021Z,29.98
2022-11-26T18:19:59.719Z,30.08
2022-11-26T18:25:06.152Z,30.19
2022-11-26T18:30:12.359Z,27.78
2022-11-26T18:35:18.951Z,28.59
2022-11-26T18:40:25.106Z,27.08
2022-11-26T18:45:31.257Z,28.50
2022-11-26T18:50:37.343Z,27.59
2022-11-26T18:55:43.907Z,27.77
2022-11-26T19:00:50.101Z,27.16
2022-11-26T19:05:56.235Z,25.88
2022-11-26T19:11:02.312Z,24.17
2022-11-26T19:16:14.485Z,24.32
2022-11-26T19:21:14.132Z,24.58
2022-11-26T19:26:20.410Z,22.07
2022-11-26T19:31:26.511Z,22.42
2022-11-26T19:36:32.795Z,21.20
2022-11-26T19:41:39.240Z,21.03
2022-11-26T19:46:46.048Z,21.78
2022-11-26T19:51:52.114Z,21.05
2022-11-26T19:56:58.628Z,19.94
2022-11-26T20:02:05.063Z,20.34
2022-11-26T20:07:11.332Z,20.26
2022-11-26T20:12:17.418Z,19.53
2022-11-26T20:17:23.980Z,19.13
2022-11-26T20:22:30.513Z,20.86
2022-11-26T20:27:36.786Z,19.30
2022-11-26T20:32:43.193Z,18.80
2022-11-26T20:37:49.689Z,17.47
2022-11-26T20:42:55.802Z,17.81
2022-11-26T20:48:02.014Z,16.91
2022-11-26T20:53:08.469Z,16.25
2022-11-26T20:58:14.639Z,16.46
2022-11-26T21:03:20.725Z,15.98
2022-11-26T21:08:27.313Z,14.07
2022-11-26T21:13:33.870Z,15.08
2022-11-26T21:18:40.075Z,14.44
2022-11-26T21:23:46.208Z,14.24
2022-11-26T21:28:52.494Z,14.59
2022-11-26T21:33:58.647Z,13.78
2022-11-26T21:39:04.808Z,13.18
2022-11-26T21:44:10.924Z,14.05
2022-11-26T21:49:17.211Z,12.89
2022-11-26T21:54:23.708Z,13.12
2022-11-26T21:59:29.904Z,12.52
2022-11-26T22:04:35.988Z,12.13
2022-11-26T22:09:42.261Z,12.15
2022-11-26T22:14:48.252Z,11.80
2022-11-26T22:19:54.613Z,11.41
2022-11-26T22:25:00.724Z,11.84
2022-11-26T22:30:07.011Z,12.06
2022-11-26T22:35:13.176Z,11.56
2022-11-26T22:40:19.783Z,10.74
2022-11-26T22:45:25.844Z,11.49
2022-11-26T22:50:32.122Z,10.75
2022-11-26T22:55:38.283Z,10.52
2022-11-26T23:00:44.811Z,10.80
2022-11-26T23:05:50.887Z,10.45
2022-11-26T23:10:57.145Z,10.65
2022-11-26T23:16:03.664Z,10.14
2022-11-26T23:21:09.814Z,9.48
2022-11-26T23:26:16.632Z,9.02
2022-11-26T23:31:22.120Z,9.38
2022-11-26T23:36:28.219Z,8.97
2022-11-26T23:41:34.436Z,8.68
2022-11-26T23:46:40.661Z,8.65
2022-11-26T23:51:47.126Z,8.63
2022-11-26T23:56:53.377Z,8.96
